createdAt,value
2023-01-10T00:00:03.201Z,0.80
2023-01-10T00:02:31.013Z,0.90
2023-01-10T00:04:58.828Z,0.80
2023-01-10T00:07:26.783Z,1.20
2023-01-10T00:09:55.919Z,1.10
2023-01-10T00:12:41.284Z,0.80
2023-01-10T00:15:10.218Z,0.90
2023-01-10T00:17:38.057Z,0.77
2023-01-10T00:20:06.690Z,0.90
2023-01-10T00:22:34.581Z,0.70
2023-01-10T00:25:03.807Z,1.00
2023-01-10T00:27:31.597Z,0.90
2023-01-10T00:30:01.493Z,0.80
2023-01-10T00:32:29.343Z,1.30
2023-01-10T00:34:57.154Z,0.90
2023-01-10T00:37:24.971Z,1.17
2023-01-10T00:39:52.760Z,1.17
2023-01-10T00:42:39.348Z,1.00
2023-01-10T00:45:08.011Z,1.00
2023-01-10T00:47:35.840Z,0.93
2023-01-10T00:50:05.626Z,1.00
2023-01-10T00:52:33.462Z,0.97
2023-01-10T00:55:01.335Z,1.00
2023-01-10T00:57:30.538Z,0.90
2023-01-10T00:59:58.445Z,1.10
2023-01-10T01:02:26.510Z,0.93
2023-01-10T01:04:54.572Z,0.87
2023-01-10T01:07:22.426Z,1.30
2023-01-10T01:10:07.719Z,1.17
2023-01-10T01:12:36.967Z,0.97
2023-01-10T01:15:05.279Z,0.83
2023-01-10T01:17:33.137Z,0.87
2023-01-10T01:20:00.920Z,0.70
2023-01-10T01:22:28.806Z,1.10
2023-01-10T01:24:56.651Z,0.80
2023-01-10T01:27:24.436Z,0.90
2023-01-10T01:29:54.092Z,0.70
2023-01-10T01:32:21.878Z,0.90
2023-01-10T01:34:50.058Z,1.10
2023-01-10T01:37:19.555Z,1.00
2023-01-10T01:39:47.619Z,1.03
2023-01-10T01:42:24.807Z,0.70
2023-01-10T01:45:39.568Z,0.73
2023-01-10T01:48:30.622Z,0.80
2023-01-10T01:51:05.519Z,0.90
2023-01-10T01:53:38.111Z,0.67
2023-01-10T01:56:10.997Z,0.90
2023-01-10T01:58:43.760Z,0.90
2023-01-10T02:01:15.643Z,0.70
2023-01-10T02:03:46.279Z,0.93
2023-01-10T02:06:16.270Z,0.80
2023-01-10T02:08:53.931Z,0.70
2023-01-10T02:11:22.119Z,0.80
2023-01-10T02:13:51.070Z,0.83
2023-01-10T02:16:20.394Z,1.13
2023-01-10T02:18:48.359Z,1.10
2023-01-10T02:21:34.258Z,0.80
2023-01-10T02:24:38.556Z,1.00
2023-01-10T02:27:21.128Z,0.80
2023-01-10T02:30:22.201Z,1.00
2023-01-10T02:33:04.572Z,0.70
2023-01-10T02:36:02.961Z,0.93
2023-01-10T02:38:41.864Z,0.87
2023-01-10T02:41:22.971Z,0.70
2023-01-10T02:43:55.193Z,1.20
2023-01-10T02:46:27.864Z,0.73
2023-01-10T02:48:57.633Z,0.93
2023-01-10T02:51:28.119Z,0.90
2023-01-10T02:54:00.498Z,0.63
2023-01-10T02:57:01.940Z,0.80
2023-01-10T02:59:59.018Z,1.10
2023-01-10T03:02:41.393Z,0.60
2023-01-10T03:05:18.090Z,0.60
2023-01-10T03:07:53.900Z,0.80
2023-01-10T03:10:29.822Z,0.70
2023-01-10T03:13:02.948Z,0.70
2023-01-10T03:15:33.925Z,0.63
2023-01-10T03:18:05.062Z,0.77
2023-01-10T03:20:38.250Z,0.97
2023-01-10T03:23:07.473Z,0.60
2023-01-10T03:25:39.022Z,0.70
2023-01-10T03:28:12.046Z,0.70
2023-01-10T03:30:45.868Z,0.70
2023-01-10T03:33:17.832Z,0.90
2023-01-10T03:36:00.790Z,0.80
2023-01-10T03:38:33.337Z,0.70
2023-01-10T03:41:08.506Z,0.70
2023-01-10T03:44:02.328Z,0.70
2023-01-10T03:46:37.269Z,0.60
2023-01-10T03:49:07.750Z,0.90
2023-01-10T03:51:38.406Z,0.80
2023-01-10T03:54:06.624Z,0.80
2023-01-10T03:56:45.097Z,0.80
2023-01-10T03:59:13.262Z,1.10
2023-01-10T04:01:41.197Z,0.90
2023-01-10T04:04:09.177Z,0.80
2023-01-10T04:06:38.769Z,1.07
2023-01-10T04:09:06.571Z,0.77
2023-01-10T04:11:34.340Z,0.80
2023-01-10T04:14:02.391Z,0.90
2023-01-10T04:16:30.198Z,0.80
2023-01-10T04:18:58.027Z,0.73
2023-01-10T04:21:25.844Z,0.80
2023-01-10T04:23:55.023Z,1.03
2023-01-10T04:26:22.888Z,1.00
2023-01-10T04:28:50.700Z,1.10
2023-01-10T04:31:18.851Z,0.73
2023-01-10T04:33:46.803Z,0.90
2023-01-10T04:36:14.615Z,0.90
2023-01-10T04:38:42.463Z,0.97
2023-01-10T04:41:11.686Z,0.60
2023-01-10T04:43:39.446Z,0.90
2023-01-10T04:46:07.364Z,0.80
2023-01-10T04:48:37.143Z,0.73
2023-01-10T04:51:05.674Z,1.00
2023-01-10T04:53:33.540Z,0.90
2023-01-10T04:56:05.130Z,1.07
2023-01-10T04:58:35.578Z,0.83
2023-01-10T05:01:09.243Z,1.40
2023-01-10T05:03:37.122Z,1.27
2023-01-10T05:06:05.641Z,1.10
2023-01-10T05:08:33.655Z,0.90
2023-01-10T05:11:01.638Z,1.10
2023-01-10T05:13:29.409Z,1.00
2023-01-10T05:16:02.217Z,1.10
2023-01-10T05:18:30.735Z,0.93
2023-01-10T05:21:01.600Z,0.80
2023-01-10T05:23:30.355Z,0.90
2023-01-10T05:25:58.465Z,0.80
2023-01-10T05:28:26.266Z,1.03
2023-01-10T05:30:54.129Z,0.80
2023-01-10T05:33:23.270Z,0.80
2023-01-10T05:35:51.092Z,1.07
2023-01-10T05:38:18.903Z,1.00
2023-01-10T05:40:46.665Z,0.73
2023-01-10T05:43:14.498Z,0.87
2023-01-10T05:45:43.757Z,0.87
2023-01-10T05:48:11.727Z,1.00
2023-01-10T05:50:40.821Z,1.27
2023-01-10T05:53:08.641Z,0.73
2023-01-10T05:55:36.391Z,0.70
2023-01-10T05:58:04.605Z,0.80
2023-01-10T06:00:32.367Z,0.73
2023-01-10T06:03:00.268Z,0.60
2023-01-10T06:05:28.103Z,0.70
2023-01-10T06:07:57.284Z,0.80
2023-01-10T06:10:27.019Z,0.60
2023-01-10T06:12:56.175Z,0.70
2023-01-10T06:15:23.989Z,0.70
2023-01-10T06:17:51.886Z,0.60
2023-01-10T06:20:19.979Z,0.70
2023-01-10T06:22:47.842Z,0.52
2023-01-10T06:25:17.393Z,0.67
2023-01-10T06:27:51.769Z,0.80
2023-01-10T06:30:19.858Z,0.70
2023-01-10T06:32:47.632Z,0.80
2023-01-10T06:35:15.447Z,1.00
2023-01-10T06:37:43.269Z,0.90
2023-01-10T06:40:12.054Z,0.60
2023-01-10T06:42:41.455Z,0.83
2023-01-10T06:45:10.109Z,0.80
2023-01-10T06:47:38.523Z,0.73
2023-01-10T06:50:07.712Z,0.77
2023-01-10T06:52:35.565Z,0.80
2023-01-10T06:55:03.434Z,1.00
2023-01-10T06:57:33.968Z,0.73
2023-01-10T07:00:03.531Z,0.77
2023-01-10T07:02:31.334Z,0.60
2023-01-10T07:04:59.134Z,0.67
2023-01-10T07:07:26.931Z,0.90
2023-01-10T07:09:54.763Z,1.00
2023-01-10T07:12:22.585Z,0.70
2023-01-10T07:14:50.496Z,0.70
2023-01-10T07:17:19.654Z,0.70
2023-01-10T07:19:47.436Z,0.83
2023-01-10T07:22:15.223Z,1.20
2023-01-10T07:24:43.014Z,0.90
2023-01-10T07:27:10.793Z,0.80
2023-01-10T07:29:38.641Z,1.03
2023-01-10T07:32:06.884Z,1.20
2023-01-10T07:34:36.047Z,0.83
2023-01-10T07:37:03.987Z,1.10
2023-01-10T07:39:31.754Z,1.20
2023-01-10T07:42:01.158Z,1.30
2023-01-10T07:44:29.028Z,3.43
2023-01-10T07:46:56.977Z,0.97
2023-01-10T07:49:24.840Z,1.30
2023-01-10T07:51:54.669Z,1.30
2023-01-10T07:54:22.664Z,1.23
2023-01-10T07:56:50.455Z,1.50
2023-01-10T07:59:18.429Z,1.40
2023-01-10T08:01:47.390Z,1.47
2023-01-10T08:04:15.265Z,1.57
2023-01-10T08:06:43.046Z,1.90
2023-01-10T08:09:12.216Z,1.87
2023-01-10T08:11:41.581Z,1.50
2023-01-10T08:14:09.626Z,1.20
2023-01-10T08:16:37.490Z,1.50
2023-01-10T08:19:05.384Z,1.47
2023-01-10T08:21:33.145Z,1.27
2023-01-10T08:24:00.874Z,1.33
2023-01-10T08:26:30.045Z,1.50
2023-01-10T08:28:57.958Z,1.57
2023-01-10T08:31:25.804Z,1.60
2023-01-10T08:33:53.786Z,1.50
2023-01-10T08:36:22.698Z,1.50
2023-01-10T08:38:50.979Z,1.43
2023-01-10T08:41:18.908Z,1.57
2023-01-10T08:43:50.379Z,1.80
2023-01-10T08:46:19.099Z,1.37
2023-01-10T08:48:48.406Z,1.37
2023-01-10T08:51:16.273Z,1.10
2023-01-10T08:53:44.166Z,1.10
2023-01-10T08:56:12.285Z,1.00
2023-01-10T08:58:40.476Z,1.03
2023-01-10T09:01:11.791Z,1.30
2023-01-10T09:03:40.237Z,1.20
2023-01-10T09:06:09.292Z,1.23
2023-01-10T09:08:37.772Z,0.87
2023-01-10T09:11:05.715Z,0.97
2023-01-10T09:13:34.087Z,1.20
2023-01-10T09:16:01.919Z,0.80
2023-01-10T09:18:31.141Z,0.70
2023-01-10T09:20:59.021Z,1.00
2023-01-10T09:23:27.663Z,0.80
2023-01-10T09:25:57.724Z,0.73
2023-01-10T09:28:25.581Z,0.90
2023-01-10T09:30:53.491Z,0.90
2023-01-10T09:33:21.389Z,0.80
2023-01-10T09:35:50.636Z,1.17
2023-01-10T09:38:22.117Z,1.00
2023-01-10T09:41:01.847Z,0.90
2023-01-10T09:43:40.537Z,1.00
2023-01-10T09:46:13.690Z,1.00
2023-01-10T09:48:50.335Z,1.43
2023-01-10T09:51:30.297Z,1.50
2023-01-10T09:54:11.200Z,1.40
2023-01-10T09:56:40.999Z,1.43
2023-01-10T09:59:16.084Z,1.27
2023-01-10T10:01:44.156Z,1.30
2023-01-10T10:04:23.322Z,1.10
2023-01-10T10:06:54.105Z,1.23
2023-01-10T10:09:26.665Z,1.40
2023-01-10T10:12:15.302Z,1.57
2023-01-10T10:14:54.106Z,1.20
2023-01-10T10:17:42.357Z,1.40
2023-01-10T10:20:24.110Z,1.20
2023-01-10T10:23:06.076Z,0.93
2023-01-10T10:25:48.244Z,1.20
2023-01-10T10:28:55.135Z,1.30
2023-01-10T10:31:36.968Z,0.90
2023-01-10T10:34:12.681Z,1.40
2023-01-10T10:36:45.214Z,0.90
2023-01-10T10:39:17.577Z,1.07
2023-01-10T10:41:48.469Z,1.60
2023-01-10T10:44:32.636Z,0.77
2023-01-10T10:47:01.591Z,0.90
2023-01-10T10:49:38.580Z,0.80
2023-01-10T10:52:15.180Z,1.00
2023-01-10T10:54:46.920Z,1.60
2023-01-10T10:57:15.613Z,1.40
2023-01-10T10:59:47.808Z,1.40
2023-01-10T11:02:26.238Z,1.10
2023-01-10T11:04:57.666Z,0.63
2023-01-10T11:07:26.927Z,0.87
2023-01-10T11:10:12.904Z,1.10
2023-01-10T11:12:45.208Z,0.90
2023-01-10T11:15:13.184Z,1.20
2023-01-10T11:17:41.769Z,1.07
2023-01-10T11:20:17.957Z,0.77
2023-01-10T11:22:50.009Z,1.00
2023-01-10T11:25:21.677Z,1.10
2023-01-10T11:27:52.321Z,1.10
2023-01-10T11:30:23.650Z,0.83
2023-01-10T11:32:54.535Z,0.93
2023-01-10T11:35:26.362Z,0.93
2023-01-10T11:38:02.154Z,0.90
2023-01-10T11:40:32.543Z,0.70
2023-01-10T11:43:01.740Z,1.00
2023-01-10T11:45:32.559Z,1.10
2023-01-10T11:48:09.945Z,0.80
2023-01-10T11:50:40.627Z,0.97
2023-01-10T11:53:27.201Z,0.90
2023-01-10T11:55:56.382Z,1.00
2023-01-10T11:58:24.284Z,1.30
2023-01-10T12:00:52.149Z,1.30
2023-01-10T12:03:26.696Z,1.07
2023-01-10T12:05:57.714Z,0.60
2023-01-10T12:08:28.475Z,0.83
2023-01-10T12:11:03.327Z,1.00
2023-01-10T12:13:44.379Z,1.07
2023-01-10T12:16:24.269Z,1.03
2023-01-10T12:18:53.943Z,1.03
2023-01-10T12:21:27.678Z,1.20
2023-01-10T12:23:58.509Z,1.10
2023-01-10T12:26:30.996Z,1.10
2023-01-10T12:29:06.323Z,1.17
2023-01-10T12:31:36.523Z,0.83
2023-01-10T12:34:08.551Z,0.80
2023-01-10T12:36:44.626Z,1.07
2023-01-10T12:39:19.185Z,1.40
2023-01-10T12:42:11.877Z,1.00
2023-01-10T12:44:42.328Z,1.00
2023-01-10T12:47:21.895Z,0.97
2023-01-10T12:49:56.607Z,0.93
2023-01-10T12:52:34.181Z,1.10
2023-01-10T12:55:03.165Z,1.00
2023-01-10T12:57:37.041Z,1.00
2023-01-10T13:00:15.179Z,1.27
2023-01-10T13:02:46.091Z,0.90
2023-01-10T13:05:20.426Z,1.03
2023-01-10T13:07:50.173Z,1.10
2023-01-10T13:10:21.871Z,1.40
2023-01-10T13:12:58.309Z,1.03
2023-01-10T13:15:31.528Z,1.40
2023-01-10T13:18:04.483Z,0.80
2023-01-10T13:20:43.040Z,0.90
2023-01-10T13:23:30.105Z,1.80
2023-01-10T13:26:04.835Z,0.90
2023-01-10T13:28:35.584Z,1.10
2023-01-10T13:31:06.955Z,1.43
2023-01-10T13:33:40.287Z,1.13
2023-01-10T13:36:11.824Z,1.47
2023-01-10T13:38:49.954Z,0.80
2023-01-10T13:41:36.358Z,1.00
2023-01-10T13:44:08.781Z,1.13
2023-01-10T13:46:41.942Z,0.70
2023-01-10T13:49:49.955Z,0.87
2023-01-10T13:52:39.885Z,1.13
2023-01-10T13:55:27.626Z,1.10
2023-01-10T13:58:00.323Z,1.00
2023-01-10T14:01:05.363Z,1.30
2023-01-10T14:03:42.168Z,0.93
2023-01-10T14:06:19.102Z,1.20
2023-01-10T14:08:55.245Z,0.90
2023-01-10T14:11:25.483Z,1.23
2023-01-10T14:13:55.279Z,1.00
2023-01-10T14:16:31.842Z,1.10
2023-01-10T14:19:00.111Z,0.90
2023-01-10T14:21:30.273Z,0.90
2023-01-10T14:23:59.418Z,0.80
2023-01-10T14:26:33.559Z,1.37
2023-01-10T14:29:03.450Z,1.30
2023-01-10T14:31:32.880Z,0.93
2023-01-10T14:34:02.877Z,1.40
2023-01-10T14:36:34.643Z,1.20
2023-01-10T14:39:05.631Z,1.27
2023-01-10T14:41:37.524Z,0.90
2023-01-10T14:44:11.974Z,0.80
2023-01-10T14:46:47.139Z,0.70
2023-01-10T14:49:22.521Z,1.10
2023-01-10T14:51:51.640Z,0.90
2023-01-10T14:54:21.820Z,1.20
2023-01-10T14:56:51.337Z,1.00
2023-01-10T14:59:23.905Z,0.90
2023-01-10T15:01:55.282Z,0.97
2023-01-10T15:04:26.791Z,1.00
2023-01-10T15:06:57.613Z,1.30
2023-01-10T15:09:25.899Z,1.10
2023-01-10T15:11:55.779Z,1.00
2023-01-10T15:14:26.844Z,1.57
2023-01-10T15:17:02.145Z,1.27
2023-01-10T15:19:34.401Z,0.90
2023-01-10T15:22:04.012Z,1.00
2023-01-10T15:24:34.041Z,1.03
2023-01-10T15:27:05.637Z,1.10
2023-01-10T15:29:34.409Z,1.03
2023-01-10T15:32:10.203Z,0.70
2023-01-10T15:34:38.714Z,1.33
2023-01-10T15:37:14.790Z,0.80
2023-01-10T15:39:42.749Z,1.20
2023-01-10T15:42:12.954Z,1.37
2023-01-10T15:44:44.889Z,0.90
2023-01-10T15:47:41.424Z,0.90
2023-01-10T15:50:20.845Z,1.03
2023-01-10T15:52:49.821Z,1.00
2023-01-10T15:55:42.029Z,1.00
2023-01-10T15:58:23.551Z,1.07
2023-01-10T16:00:53.280Z,1.00
2023-01-10T16:03:35.586Z,0.90
2023-01-10T16:06:08.922Z,1.50
2023-01-10T16:08:39.843Z,1.57
2023-01-10T16:11:09.907Z,1.37
2023-01-10T16:13:37.458Z,1.30
2023-01-10T16:16:15.540Z,1.10
2023-01-10T16:18:44.753Z,1.10
2023-01-10T16:21:14.267Z,0.90
2023-01-10T16:23:45.939Z,1.17
2023-01-10T16:26:14.642Z,1.50
2023-01-10T16:28:42.413Z,1.80
2023-01-10T16:31:12.818Z,1.60
2023-01-10T16:33:41.230Z,1.07
2023-01-10T16:36:16.925Z,0.83
2023-01-10T16:38:45.655Z,1.50
2023-01-10T16:41:32.505Z,1.60
2023-01-10T16:44:00.625Z,0.90
2023-01-10T16:46:28.690Z,2.10
2023-01-10T16:48:56.614Z,1.70
2023-01-10T16:51:27.579Z,1.70
2023-01-10T16:53:55.945Z,2.57
2023-01-10T16:56:25.837Z,2.00
2023-01-10T16:58:55.436Z,1.70
2023-01-10T17:01:28.548Z,2.60
2023-01-10T17:03:57.110Z,2.97
2023-01-10T17:06:26.314Z,2.88
2023-01-10T17:08:54.055Z,3.20
2023-01-10T17:11:27.765Z,5.03
2023-01-10T17:13:55.965Z,5.87
2023-01-10T17:16:23.923Z,5.93
2023-01-10T17:18:52.061Z,5.63
2023-01-10T17:21:21.878Z,6.30
2023-01-10T17:23:52.064Z,5.20
2023-01-10T17:26:20.720Z,4.47
2023-01-10T17:28:49.582Z,4.37
2023-01-10T17:31:17.689Z,4.60
2023-01-10T17:33:45.621Z,4.87
2023-01-10T17:36:13.467Z,10.00
2023-01-10T17:38:43.047Z,12.10
2023-01-10T17:41:12.234Z,10.50
2023-01-10T17:43:40.462Z,10.40
2023-01-10T17:46:08.551Z,7.37
2023-01-10T17:48:37.106Z,6.47
2023-01-10T17:51:05.447Z,7.80
2023-01-10T17:53:33.352Z,5.37
2023-01-10T17:56:01.197Z,5.27
2023-01-10T17:58:31.202Z,5.40
2023-01-10T18:00:59.263Z,3.90
2023-01-10T18:03:27.660Z,4.17
2023-01-10T18:05:57.119Z,3.87
2023-01-10T18:08:26.326Z,2.87
2023-01-10T18:10:59.953Z,3.23
2023-01-10T18:13:30.290Z,2.80
2023-01-10T18:16:00.490Z,2.83
2023-01-10T18:18:29.057Z,3.30
2023-01-10T18:21:00.809Z,3.03
2023-01-10T18:23:30.600Z,2.67
2023-01-10T18:26:00.845Z,3.37
2023-01-10T18:28:40.635Z,2.90
2023-01-10T18:31:12.798Z,4.03
2023-01-10T18:33:41.139Z,3.30
2023-01-10T18:36:14.100Z,4.17
2023-01-10T18:38:41.998Z,4.00
2023-01-10T18:41:13.075Z,2.47
2023-01-10T18:43:41.097Z,2.93
2023-01-10T18:46:13.368Z,3.33
2023-01-10T18:48:41.242Z,4.37
2023-01-10T18:51:12.189Z,3.70
2023-01-10T18:53:40.366Z,4.70
2023-01-10T18:56:08.593Z,3.50
2023-01-10T18:58:38.368Z,4.90
2023-01-10T19:01:07.373Z,3.43
2023-01-10T19:03:37.916Z,3.17
2023-01-10T19:06:08.026Z,2.50
2023-01-10T19:08:38.035Z,4.57
2023-01-10T19:11:13.985Z,5.73
2023-01-10T19:13:42.742Z,4.03
2023-01-10T19:16:15.595Z,2.77
2023-01-10T19:18:45.738Z,3.00
2023-01-10T19:21:15.849Z,2.33
2023-01-10T19:23:44.232Z,3.27
2023-01-10T19:26:12.266Z,2.97
2023-01-10T19:28:40.403Z,2.53
2023-01-10T19:31:08.293Z,2.30
2023-01-10T19:33:37.406Z,2.00
2023-01-10T19:36:08.672Z,3.70
2023-01-10T19:38:37.279Z,5.57
2023-01-10T19:41:05.577Z,4.87
2023-01-10T19:43:33.781Z,6.07
2023-01-10T19:46:05.583Z,5.53
2023-01-10T19:48:35.697Z,5.63
2023-01-10T19:51:08.702Z,5.50
2023-01-10T19:53:37.204Z,4.73
2023-01-10T19:56:09.739Z,4.97
2023-01-10T19:58:39.539Z,5.63
2023-01-10T20:01:09.341Z,5.27
2023-01-10T20:03:37.899Z,5.80
2023-01-10T20:06:09.050Z,5.70
2023-01-10T20:08:37.181Z,5.13
2023-01-10T20:11:07.931Z,4.53
2023-01-10T20:13:37.479Z,5.50
2023-01-10T20:16:06.162Z,5.60
2023-01-10T20:18:34.221Z,5.60
2023-01-10T20:21:06.429Z,4.93
2023-01-10T20:23:36.042Z,4.00
2023-01-10T20:26:06.173Z,4.37
2023-01-10T20:28:34.941Z,3.30
2023-01-10T20:31:03.609Z,2.80
2023-01-10T20:33:34.331Z,2.80
2023-01-10T20:36:04.638Z,3.30
2023-01-10T20:38:33.765Z,2.20
2023-01-10T20:41:06.327Z,2.67
2023-01-10T20:43:34.990Z,3.10
2023-01-10T20:46:06.806Z,2.40
2023-01-10T20:48:34.842Z,2.60
2023-01-10T20:51:02.742Z,2.77
2023-01-10T20:53:31.078Z,2.40
2023-01-10T20:56:04.326Z,2.50
2023-01-10T20:58:32.841Z,2.07
2023-01-10T21:01:03.289Z,3.20
2023-01-10T21:03:31.212Z,2.40
2023-01-10T21:05:59.672Z,2.63
2023-01-10T21:08:29.464Z,1.73
2023-01-10T21:10:58.407Z,2.23
2023-01-10T21:13:27.979Z,2.73
2023-01-10T21:15:58.313Z,2.10
2023-01-10T21:18:27.967Z,2.60
2023-01-10T21:20:57.580Z,2.13
2023-01-10T21:23:27.197Z,2.87
2023-01-10T21:25:55.594Z,2.13
2023-01-10T21:28:23.492Z,2.30
2023-01-10T21:30:54.263Z,2.30
2023-01-10T21:33:22.234Z,1.63
2023-01-10T21:35:53.575Z,2.17
2023-01-10T21:38:21.589Z,2.30
2023-01-10T21:40:49.534Z,1.80
2023-01-10T21:43:17.532Z,1.60
2023-01-10T21:45:45.789Z,2.53
2023-01-10T21:48:15.525Z,1.80
2023-01-10T21:50:44.673Z,1.70
2023-01-10T21:53:12.559Z,1.60
2023-01-10T21:55:40.442Z,1.83
2023-01-10T21:58:08.293Z,1.63
2023-01-10T22:00:36.112Z,1.63
2023-01-10T22:03:04.059Z,1.73
2023-01-10T22:05:33.314Z,1.27
2023-01-10T22:08:01.192Z,1.63
2023-01-10T22:10:30.139Z,1.60
2023-01-10T22:12:57.996Z,1.60
2023-01-10T22:15:27.011Z,1.97
2023-01-10T22:17:54.892Z,2.10
2023-01-10T22:20:22.831Z,2.10
2023-01-10T22:22:52.072Z,2.20
2023-01-10T22:25:19.904Z,1.40
2023-01-10T22:27:47.679Z,1.70
2023-01-10T22:30:15.739Z,1.87
2023-01-10T22:32:43.548Z,2.30
2023-01-10T22:35:13.687Z,1.97
2023-01-10T22:37:41.631Z,1.60
2023-01-10T22:40:13.085Z,1.90
2023-01-10T22:42:40.868Z,1.27
2023-01-10T22:45:09.656Z,1.87
2023-01-10T22:47:38.285Z,1.73
2023-01-10T22:50:07.094Z,2.30
2023-01-10T22:52:36.937Z,1.80
2023-01-10T22:55:05.341Z,1.70
2023-01-10T22:57:46.369Z,1.67
2023-01-10T23:02:56.661Z,1.33
2023-01-10T23:05:24.517Z,1.70
2023-01-10T23:07:52.521Z,1.23
2023-01-10T23:10:30.242Z,2.17
2023-01-10T23:13:01.962Z,1.53
2023-01-10T23:15:30.588Z,1.47
2023-01-10T23:17:58.443Z,1.40
2023-01-10T23:20:26.472Z,1.20
2023-01-10T23:22:54.336Z,1.40
2023-01-10T23:25:22.127Z,1.27
2023-01-10T23:27:49.964Z,1.10
2023-01-10T23:30:19.458Z,1.47
2023-01-10T23:32:47.303Z,1.10
2023-01-10T23:35:15.160Z,1.20
2023-01-10T23:37:43.005Z,1.30
2023-01-10T23:40:11.962Z,1.20
2023-01-10T23:42:39.858Z,1.17
2023-01-10T23:45:09.133Z,1.30
2023-01-10T23:47:38.335Z,1.40
2023-01-10T23:50:06.955Z,0.73
2023-01-10T23:52:34.783Z,1.10
2023-01-10T23:55:02.547Z,0.77
2023-01-10T23:57:30.320Z,0.90
2023-01-10T23:59:59.793Z,1.60
